Time;durP1;ratioP1;P1;durP2;ratioP2;P2;SDS_P1;SDS_P2;PMS_P1;PMS_P2;Temp;Humidity;BMP_temperature;BMP_pressure;BME280_temperature;BME280_humidity;BME280_pressure;Samples;Min_cycle;Max_cycle;Signal;HPM_P1;HPM_P2
2021/10/07 00:00:28;;;;;;;3.28;1.80;;;;;;;7.59;100.00;96733.53;1039699;28;20013;-50
2021/10/07 00:00:59;;;;;;;4.75;2.22;;;;;;;7.58;100.00;96737.03;1048041;28;20016;-49
2021/10/07 00:01:30;;;;;;;4.43;2.10;;;;;;;7.64;100.00;96738.50;1043962;28;20017;-52
2021/10/07 00:02:02;;;;;;;5.32;2.10;;;;;;;7.66;100.00;96749.72;1044108;28;20496;-50
2021/10/07 00:02:32;;;;;;;3.95;1.73;;;;;;;7.64;100.00;96739.38;1048085;28;20016;-50
2021/10/07 00:03:03;;;;;;;3.33;1.92;;;;;;;7.73;100.00;96740.69;1044015;28;20614;-49
2021/10/07 00:03:34;;;;;;;4.90;2.30;;;;;;;7.76;100.00;96741.41;1044008;28;20017;-50
2021/10/07 00:04:05;;;;;;;4.85;2.08;;;;;;;7.84;100.00;96738.44;1039860;28;20292;-49
2021/10/07 00:04:35;;;;;;;3.65;1.70;;;;;;;7.88;100.00;96742.63;1035870;28;20661;-49
2021/10/07 00:05:07;;;;;;;3.92;2.13;;;;;;;7.90;100.00;96735.56;1031801;28;20015;-51
2021/10/07 00:05:37;;;;;;;4.47;2.08;;;;;;;7.82;100.00;96732.44;1036030;28;20124;-49
2021/10/07 00:06:08;;;;;;;3.88;2.10;;;;;;;7.77;100.00;96737.91;1035603;28;20296;-51
2021/10/07 00:06:39;;;;;;;5.53;2.35;;;;;;;7.74;100.00;96742.41;1035575;28;20038;-50
2021/10/07 00:07:09;;;;;;;4.53;2.13;;;;;;;7.82;100.00;96729.84;1039867;28;20017;-50
2021/10/07 00:07:40;;;;;;;4.20;2.00;;;;;;;7.82;100.00;96729.00;1039968;28;20499;-51
2021/10/07 00:08:11;;;;;;;3.85;2.08;;;;;;;7.79;100.00;96730.84;1035921;28;20021;-50
2021/10/07 00:08:42;;;;;;;5.82;2.30;;;;;;;7.55;100.00;96698.91;1039788;28;20021;-50
2021/10/07 00:09:12;;;;;;;3.50;1.90;;;;;;;7.81;100.00;96736.00;1036065;28;20110;-51
2021/10/07 00:09:43;;;;;;;4.63;2.25;;;;;;;7.79;100.00;96732.63;1040499;28;20025;-49
2021/10/07 00:10:14;;;;;;;4.68;1.83;;;;;;;7.81;100.00;96733.38;1048020;28;20070;-50
2021/10/07 00:10:45;;;;;;;4.53;1.92;;;;;;;7.83;100.00;96728.94;1039643;28;20116;-50
2021/10/07 00:11:16;;;;;;;3.75;2.00;;;;;;;7.82;100.00;96737.66;1043889;28;20028;-50
2021/10/07 00:11:47;;;;;;;4.68;2.00;;;;;;;7.76;100.00;96730.97;1035679;28;20901;-50
2021/10/07 00:12:17;;;;;;;4.22;2.20;;;;;;;7.70;100.00;96736.47;1031942;28;20257;-50
2021/10/07 00:12:48;;;;;;;4.00;1.95;;;;;;;7.68;100.00;96734.88;1035810;28;20022;-49
2021/10/07 00:13:18;;;;;;;4.15;2.25;;;;;;;7.73;100.00;96736.34;1040031;28;20022;-50
2021/10/07 00:13:49;;;;;;;3.00;1.70;;;;;;;7.75;100.00;96736.25;1040143;28;20215;-50
2021/10/07 00:14:20;;;;;;;5.13;2.35;;;;;;;7.74;100.00;96734.59;1039877;28;20124;-49
2021/10/07 00:14:51;;;;;;;4.13;2.03;;;;;;;7.72;100.00;96733.81;1035711;28;20101;-50
2021/10/07 00:15:21;;;;;;;3.60;2.05;;;;;;;7.74;100.00;96735.41;1031712;28;20516;-49
2021/10/07 00:15:53;;;;;;;4.22;2.15;;;;;;;7.72;100.00;96736.41;1035598;28;20018;-49
2021/10/07 00:16:24;;;;;;;4.00;1.92;;;;;;;7.77;100.00;96737.91;1036123;28;20029;-49
2021/10/07 00:16:54;;;;;;;4.78;2.10;;;;;;;7.81;100.00;96736.00;1035537;28;20273;-53
2021/10/07 00:17:25;;;;;;;3.88;1.98;;;;;;;7.84;100.00;96735.00;1031925;28;20049;-50
2021/10/07 00:17:57;;;;;;;5.18;2.28;;;;;;;7.80;100.00;96736.91;1031646;28;20391;-50
2021/10/07 00:18:34;;;;;;;5.68;2.13;;;;;;;7.80;100.00;96736.91;1031935;28;20023;-50
2021/10/07 00:19:05;;;;;;;5.43;2.35;;;;;;;7.75;100.00;96734.50;1032871;28;20258;-49
2021/10/07 00:19:36;;;;;;;3.92;2.00;;;;;;;7.76;100.00;96732.75;1036985;28;20351;-50
2021/10/07 00:20:08;;;;;;;3.58;2.20;;;;;;;7.73;100.00;96735.47;1037597;28;20029;-52
2021/10/07 00:20:39;;;;;;;4.38;1.95;;;;;;;7.75;100.00;96738.88;1044038;28;20020;-51
2021/10/07 00:21:11;;;;;;;6.80;2.33;;;;;;;7.76;100.00;96730.97;1035503;28;20662;-49
2021/10/07 00:21:41;;;;;;;4.30;1.90;;;;;;;7.82;100.00;96729.84;1032194;28;20030;-50
2021/10/07 00:22:12;;;;;;;3.72;1.73;;;;;;;7.84;100.00;96735.81;1035746;28;20548;-49
2021/10/07 00:22:44;;;;;;;5.18;2.40;;;;;;;7.78;100.00;96733.50;1032260;28;20026;-52
2021/10/07 00:23:20;;;;;;;5.00;2.30;;;;;;;7.73;100.00;96738.09;1035497;28;20103;-53
2021/10/07 00:24:07;;;;;;;4.60;2.00;;;;;;;7.70;100.00;96727.81;1032666;28;20316;-52
2021/10/07 00:24:38;;;;;;;6.53;2.38;;;;;;;7.66;100.00;96745.38;1027533;28;20263;-49
2021/10/07 00:25:10;;;;;;;3.90;1.98;;;;;;;7.75;100.00;96738.88;1034054;28;20351;-53
2021/10/07 00:25:41;;;;;;;4.00;2.17;;;;;;;7.77;100.00;96742.25;1034057;28;20034;-50
2021/10/07 00:26:11;;;;;;;5.35;2.20;;;;;;;7.80;100.00;96736.91;1033076;28;20262;-50
2021/10/07 00:26:45;;;;;;;4.63;2.13;;;;;;;7.77;100.00;96732.69;1032289;28;20049;-50
2021/10/07 00:27:16;;;;;;;5.07;2.20;;;;;;;7.74;100.00;96740.63;1032495;28;20026;-50
2021/10/07 00:27:46;;;;;;;3.72;1.95;;;;;;;7.81;100.00;96740.34;1032269;28;20374;-50
2021/10/07 00:28:17;;;;;;;4.93;1.92;;;;;;;7.81;100.00;96736.00;1037962;28;20041;-51
2021/10/07 00:28:48;;;;;;;6.18;2.45;;;;;;;7.71;100.00;96738.16;1036753;28;20022;-50
2021/10/07 00:30:21;;;;;;;5.47;2.10;;;;;;;7.69;100.00;96741.75;1036639;28;20049;-50
2021/10/07 00:30:57;;;;;;;4.43;2.20;;;;;;;7.67;100.00;96739.22;1037166;28;20794;-50
2021/10/07 00:31:32;;;;;;;4.93;2.20;;;;;;;7.74;100.00;96740.63;1036498;28;20261;-49
2021/10/07 00:32:10;;;;;;;4.22;1.90;;;;;;;7.73;100.00;96741.56;1036459;28;20256;-50
2021/10/07 00:32:49;;;;;;;5.20;2.38;;;;;;;7.74;100.00;96739.78;1036561;28;20311;-50
2021/10/07 00:33:26;;;;;;;6.57;2.22;;;;;;;7.75;100.00;96744.06;1036520;28;20253;-50
2021/10/07 00:34:14;;;;;;;8.43;2.70;;;;;;;7.73;100.00;96743.31;1036468;28;20261;-50
2021/10/07 00:35:00;;;;;;;3.72;2.25;;;;;;;7.78;100.00;96744.78;1036570;28;20279;-50
2021/10/07 00:40:36;;;;;;;3.50;1.85;;;;;;;7.66;100.00;96732.34;1039881;28;20010;-52
2021/10/07 00:41:07;;;;;;;3.97;1.90;;;;;;;7.71;100.00;96742.53;1040598;28;20694;-50
2021/10/07 00:41:40;;;;;;;4.03;2.35;;;;;;;7.71;100.00;96737.31;1036233;28;20304;-48
2021/10/07 00:42:11;;;;;;;4.55;1.90;;;;;;;7.82;100.00;96740.28;1036281;28;20064;-49
2021/10/07 00:42:42;;;;;;;4.28;1.80;;;;;;;7.81;100.00;96738.59;1036438;28;20265;-50
2021/10/07 00:43:13;;;;;;;4.53;1.90;;;;;;;7.81;100.00;96730.78;1032234;28;20763;-50
2021/10/07 00:43:44;;;;;;;3.33;1.90;;;;;;;7.72;100.00;96733.81;1032504;28;20019;-53
2021/10/07 00:44:14;;;;;;;3.53;1.80;;;;;;;7.74;100.00;96730.19;1036802;28;20256;-50
2021/10/07 00:44:45;;;;;;;6.10;2.30;;;;;;;7.77;100.00;96739.63;1040734;28;20045;-50
2021/10/07 00:45:16;;;;;;;4.18;1.85;;;;;;;7.82;100.00;96736.84;1036504;28;20021;-52
2021/10/07 00:45:53;;;;;;;6.18;2.40;;;;;;;7.81;100.00;96736.00;1036714;28;20018;-50
2021/10/07 00:46:24;;;;;;;3.42;1.80;;;;;;;7.84;100.00;96730.59;1037412;28;20018;-48
2021/10/07 00:46:59;;;;;;;4.15;1.80;;;;;;;7.78;100.00;96734.34;1042728;28;20236;-50
2021/10/07 00:47:29;;;;;;;6.13;1.80;;;;;;;7.66;100.00;96710.59;1048879;28;20047;-50
2021/10/07 00:48:00;;;;;;;3.80;2.05;;;;;;;7.79;100.00;96735.22;1048971;28;20249;-51
2021/10/07 00:48:31;;;;;;;3.92;1.95;;;;;;;7.78;100.00;96739.56;1049045;28;20012;-48
2021/10/07 00:49:01;;;;;;;4.13;2.20;;;;;;;7.83;100.00;96738.50;1048847;28;20008;-50
2021/10/07 00:49:35;;;;;;;4.45;1.77;;;;;;;7.81;100.00;96738.59;1044675;28;20013;-51
2021/10/07 00:50:06;;;;;;;5.63;1.90;;;;;;;7.82;100.00;96736.84;1040347;28;20060;-49
2021/10/07 00:50:36;;;;;;;4.72;2.30;;;;;;;7.77;100.00;96740.50;1041113;28;20260;-50
2021/10/07 00:51:07;;;;;;;5.40;1.90;;;;;;;7.76;100.00;96727.53;1044544;28;20035;-50
2021/10/07 00:51:38;;;;;;;3.42;1.92;;;;;;;7.82;100.00;96734.22;1048693;28;20386;-49
2021/10/07 00:52:12;;;;;;;5.20;2.10;;;;;;;7.84;100.00;96737.59;1044735;28;20041;-50
2021/10/07 00:52:43;;;;;;;4.63;2.22;;;;;;;7.81;100.00;96729.91;1036234;28;20395;-50
2021/10/07 00:53:14;;;;;;;4.50;2.05;;;;;;;7.86;100.00;96734.00;1039574;28;20348;-50
2021/10/07 00:53:45;;;;;;;4.82;2.20;;;;;;;7.83;100.00;96736.75;1040491;28;20032;-50
2021/10/07 00:54:18;;;;;;;6.05;1.80;;;;;;;7.84;100.00;96740.22;1040658;28;20263;-49
2021/10/07 00:54:50;;;;;;;4.13;2.10;;;;;;;7.76;100.00;96737.97;1040468;28;20029;-50
2021/10/07 00:55:21;;;;;;;5.18;2.88;;;;;;;7.75;100.00;96739.72;1041911;28;20264;-51
2021/10/07 00:55:51;;;;;;;4.32;2.00;;;;;;;7.77;100.00;96745.72;1045283;28;20259;-48
2021/10/07 00:56:22;;;;;;;3.78;1.95;;;;;;;7.83;100.00;96741.13;1044387;28;20514;-49
2021/10/07 00:56:54;;;;;;;4.53;2.17;;;;;;;7.81;100.00;96740.34;1040395;28;20029;-50
2021/10/07 00:57:25;;;;;;;3.58;1.85;;;;;;;7.85;100.00;96741.91;1041308;28;20467;-50
2021/10/07 00:57:55;;;;;;;4.38;1.75;;;;;;;7.85;100.00;96742.75;1044905;28;20263;-49
2021/10/07 00:58:26;;;;;;;4.63;1.88;;;;;;;7.90;100.00;96742.53;1044713;28;20037;-50
2021/10/07 00:58:57;;;;;;;3.50;2.20;;;;;;;7.88;100.00;96737.41;1040410;28;20056;-51
2021/10/07 00:59:27;;;;;;;3.70;2.05;;;;;;;7.84;100.00;96741.03;1036431;28;20026;-49
2021/10/07 00:59:58;;;;;;;4.85;2.05;;;;;;;7.85;100.00;96740.16;1032456;28;20037;-50
2021/10/07 01:00:29;;;;;;;4.28;2.03;;;;;;;7.87;100.00;96743.53;1036851;28;20045;-50
2021/10/07 01:01:00;;;;;;;3.40;2.03;;;;;;;7.90;100.00;96734.69;1040652;28;20264;-49
2021/10/07 01:01:31;;;;;;;4.28;2.13;;;;;;;7.92;100.00;96741.56;1040743;28;20025;-51
2021/10/07 01:02:05;;;;;;;4.38;1.90;;;;;;;7.98;100.00;96743.03;1040591;28;20072;-51
2021/10/07 01:02:36;;;;;;;4.78;1.85;;;;;;;7.96;100.00;96740.47;1036361;28;20495;-48
2021/10/07 01:03:08;;;;;;;5.40;2.10;;;;;;;7.94;100.00;96744.94;1037535;28;20269;-50
2021/10/07 01:03:39;;;;;;;5.03;2.13;;;;;;;7.94;100.00;96739.72;1037261;28;20391;-50
2021/10/07 01:04:10;;;;;;;5.43;1.95;;;;;;;7.93;100.00;96745.84;1036336;28;20303;-49
2021/10/07 01:04:40;;;;;;;4.25;1.77;;;;;;;7.92;100.00;96738.06;1040431;28;20108;-49
2021/10/07 01:05:11;;;;;;;5.13;2.15;;;;;;;7.85;100.00;96737.53;1028215;28;20023;-50
2021/10/07 01:05:42;;;;;;;3.85;1.73;;;;;;;7.81;100.00;96735.13;1032144;28;20034;-50
2021/10/07 01:06:12;;;;;;;3.42;1.83;;;;;;;7.88;100.00;96739.13;1032385;28;20026;-50
2021/10/07 01:06:43;;;;;;;4.75;2.03;;;;;;;7.89;100.00;96741.69;1032482;28;20030;-51
2021/10/07 01:07:16;;;;;;;3.80;2.08;;;;;;;7.93;100.00;96737.16;1036290;28;20024;-50
2021/10/07 01:07:46;;;;;;;7.47;2.15;;;;;;;8.01;100.00;96736.81;1037211;28;20173;-50
2021/10/07 01:08:17;;;;;;;4.05;2.10;;;;;;;7.97;100.00;96736.09;1041502;28;20311;-50
2021/10/07 01:08:49;;;;;;;3.67;2.13;;;;;;;7.92;100.00;96738.94;1040438;28;20017;-50
2021/10/07 01:09:19;;;;;;;3.22;1.90;;;;;;;7.92;100.00;96735.47;1032106;28;20420;-50
2021/10/07 01:09:50;;;;;;;3.88;1.90;;;;;;;7.88;100.00;96739.13;1032685;28;20328;-50
2021/10/07 01:10:21;;;;;;;3.50;1.90;;;;;;;7.85;100.00;96734.94;1036752;28;20026;-50
2021/10/07 01:10:51;;;;;;;4.15;1.95;;;;;;;7.90;100.00;96738.16;1036895;28;20542;-51
2021/10/07 01:11:22;;;;;;;4.05;1.88;;;;;;;7.90;100.00;96739.91;1048673;28;20251;-49
2021/10/07 01:11:53;;;;;;;4.47;2.00;;;;;;;7.87;100.00;96733.09;1040374;28;20021;-50
2021/10/07 01:12:23;;;;;;;6.30;2.05;;;;;;;7.88;100.00;96741.75;1032354;28;20029;-50
2021/10/07 01:12:54;;;;;;;4.70;1.70;;;;;;;7.91;100.00;96733.78;1032005;28;20105;-50
2021/10/07 01:13:25;;;;;;;5.35;1.83;;;;;;;7.88;100.00;96740.00;1040409;28;20021;-53
2021/10/07 01:13:56;;;;;;;4.65;2.20;;;;;;;7.90;100.00;96730.34;1036239;28;20018;-50
2021/10/07 01:14:36;;;;;;;3.60;1.73;;;;;;;7.81;100.00;96720.34;1036420;28;20488;-50
2021/10/07 01:15:07;;;;;;;;;;;;;;;7.93;100.00;96738.00;1042385;28;20112;-50
2021/10/07 01:15:37;;;;;;;4.00;2.08;;;;;;;7.87;100.00;96743.53;1041862;28;19962;-48
2021/10/07 01:16:08;;;;;;;5.13;2.22;;;;;;;7.88;100.00;96736.53;1036295;28;20480;-50
2021/10/07 01:16:39;;;;;;;4.88;2.03;;;;;;;7.91;100.00;96739.84;1032277;28;20018;-49
2021/10/07 01:17:11;;;;;;;3.83;2.30;;;;;;;7.89;100.00;96740.84;1032332;28;20018;-49
2021/10/07 01:17:42;;;;;;;5.22;2.42;;;;;;;7.89;100.00;96744.28;1032192;28;20026;-50
2021/10/07 01:18:13;;;;;;;7.22;2.15;;;;;;;7.82;100.00;96737.66;1032213;28;20297;-50
2021/10/07 01:18:45;;;;;;;4.88;2.38;;;;;;;7.80;100.00;96736.91;1036242;28;20427;-51
2021/10/07 01:19:15;;;;;;;4.35;2.15;;;;;;;7.84;100.00;96735.00;1036408;28;20252;-50
2021/10/07 01:19:48;;;;;;;4.78;2.22;;;;;;;7.82;100.00;96742.03;1032795;28;20275;-49
2021/10/07 01:20:19;;;;;;;4.13;2.17;;;;;;;7.89;100.00;96738.25;1037597;28;20409;-50
2021/10/07 01:20:49;;;;;;;4.38;2.28;;;;;;;7.92;100.00;96741.56;1044588;28;20279;-51
2021/10/07 01:21:20;;;;;;;4.45;1.80;;;;;;;7.90;100.00;96742.53;1045094;28;20100;-48
2021/10/07 01:21:51;;;;;;;5.38;2.13;;;;;;;7.92;100.00;96741.56;1040622;28;20021;-49
2021/10/07 01:22:22;;;;;;;5.20;2.22;;;;;;;7.92;100.00;96736.34;1040436;28;20637;-49
2021/10/07 01:22:53;;;;;;;3.67;2.00;;;;;;;7.90;100.00;96738.16;1039992;28;20030;-49
2021/10/07 01:23:24;;;;;;;3.78;1.85;;;;;;;7.88;100.00;96740.00;1040401;28;20248;-50
2021/10/07 01:23:54;;;;;;;6.25;1.85;;;;;;;7.89;100.00;96735.63;1036254;28;20045;-51
2021/10/07 01:24:25;;;;;;;4.00;2.10;;;;;;;7.92;100.00;96738.94;1032391;28;20023;-50
2021/10/07 01:24:56;;;;;;;3.15;1.45;;;;;;;7.97;100.00;96741.31;1036252;28;20396;-50
2021/10/07 01:25:32;;;;;;;6.80;2.30;;;;;;;7.89;100.00;96739.06;1032245;28;20389;-50
2021/10/07 01:26:02;;;;;;;8.70;2.10;;;;;;;7.82;100.00;96737.66;1033063;28;20014;-49
2021/10/07 01:26:33;;;;;;;5.50;2.30;;;;;;;7.86;100.00;96735.75;1037021;28;20297;-50
2021/10/07 01:27:03;;;;;;;4.25;2.08;;;;;;;7.83;100.00;96741.97;1036336;28;20010;-52
2021/10/07 01:27:37;;;;;;;4.43;2.28;;;;;;;7.89;100.00;96740.84;1036514;28;20022;-49
2021/10/07 01:28:07;;;;;;;4.68;2.30;;;;;;;7.90;100.00;96739.91;1037294;28;20049;-50
2021/10/07 01:28:39;;;;;;;4.35;2.25;;;;;;;7.83;100.00;96731.53;1036827;28;20269;-49
2021/10/07 01:29:10;;;;;;;3.55;2.10;;;;;;;7.81;100.00;96738.59;1040538;28;20113;-50
2021/10/07 01:29:41;;;;;;;5.15;2.13;;;;;;;7.82;100.00;96740.28;1036240;28;20271;-50
2021/10/07 01:30:12;;;;;;;4.13;2.10;;;;;;;7.85;100.00;96736.69;1036869;28;20046;-50
2021/10/07 01:30:43;;;;;;;3.70;2.10;;;;;;;7.78;100.00;96731.75;1040540;28;20029;-50
2021/10/07 01:31:13;;;;;;;6.60;2.90;;;;;;;7.78;100.00;96736.97;1036692;28;20372;-50
2021/10/07 01:31:44;;;;;;;3.75;2.00;;;;;;;7.81;100.00;96736.00;1040221;28;20026;-50
2021/10/07 01:32:15;;;;;;;5.95;2.47;;;;;;;7.86;100.00;96738.38;1040407;28;20041;-50
2021/10/07 01:32:45;;;;;;;6.20;2.40;;;;;;;7.86;100.00;96734.00;1036176;28;20044;-49
2021/10/07 01:33:16;;;;;;;4.38;2.10;;;;;;;7.91;100.00;96737.25;1040422;28;20089;-51
2021/10/07 01:33:47;;;;;;;4.78;2.20;;;;;;;7.95;100.00;96736.16;1040332;28;20515;-50
2021/10/07 01:34:23;;;;;;;5.53;2.47;;;;;;;7.93;100.00;96738.00;1036502;28;20022;-50
2021/10/07 01:34:53;;;;;;;4.35;2.00;;;;;;;7.92;100.00;96738.94;1033124;28;20027;-50
2021/10/07 01:35:24;;;;;;;4.18;2.25;;;;;;;7.94;100.00;96739.72;1037081;28;20336;-52
2021/10/07 01:35:55;;;;;;;4.60;2.38;;;;;;;7.86;100.00;96739.22;1040150;28;20018;-50
2021/10/07 01:36:25;;;;;;;6.07;2.30;;;;;;;7.86;100.00;96733.16;1040251;28;20029;-50
2021/10/07 01:36:57;;;;;;;4.30;2.10;;;;;;;7.82;100.00;96739.44;1036281;28;20014;-53
2021/10/07 01:37:27;;;;;;;4.10;2.10;;;;;;;7.82;100.00;96739.44;1035843;28;20054;-50
2021/10/07 01:37:58;;;;;;;4.63;2.00;;;;;;;7.81;100.00;96741.22;1040453;28;20260;-50
2021/10/07 01:38:29;;;;;;;4.35;2.00;;;;;;;7.89;100.00;96731.25;1044362;28;20024;-50
2021/10/07 01:39:00;;;;;;;5.00;2.15;;;;;;;7.90;100.00;96738.16;1044455;28;20016;-50
2021/10/07 01:39:30;;;;;;;5.00;2.53;;;;;;;7.95;100.00;96736.16;1036332;28;20476;-52
2021/10/07 01:40:03;;;;;;;5.47;2.05;;;;;;;8.00;100.00;96743.78;1040136;28;20144;-51
2021/10/07 01:40:34;;;;;;;4.22;1.98;;;;;;;7.97;100.00;96739.53;1040379;28;20076;-49
2021/10/07 01:41:06;;;;;;;5.10;2.05;;;;;;;7.94;100.00;96738.88;1032658;28;20288;-51
2021/10/07 01:41:37;;;;;;;3.80;2.35;;;;;;;7.93;100.00;96743.22;1032790;28;20015;-49
2021/10/07 01:42:08;;;;;;;4.10;2.05;;;;;;;7.86;100.00;96738.38;1036455;28;20253;-50
2021/10/07 01:42:41;;;;;;;4.18;1.92;;;;;;;7.81;100.00;96733.38;1031895;28;20019;-52
2021/10/07 01:43:12;;;;;;;3.88;1.98;;;;;;;7.84;100.00;96738.44;1033174;28;20019;-50
2021/10/07 01:43:42;;;;;;;4.05;2.28;;;;;;;7.82;100.00;96734.22;1036180;28;20360;-50
2021/10/07 01:44:13;;;;;;;6.63;1.98;;;;;;;7.86;100.00;96735.75;1044384;28;20016;-51
2021/10/07 01:44:44;;;;;;;4.10;1.92;;;;;;;7.89;100.00;96740.84;1036200;28;20018;-49
2021/10/07 01:45:14;;;;;;;5.22;2.00;;;;;;;7.93;100.00;96740.63;1028228;28;20014;-50
2021/10/07 01:45:46;;;;;;;3.30;1.75;;;;;;;7.96;100.00;96742.25;1040275;28;20591;-50
2021/10/07 01:46:18;;;;;;;3.90;2.22;;;;;;;7.97;100.00;96736.09;1036282;28;20018;-51
2021/10/07 01:46:49;;;;;;;3.30;2.00;;;;;;;7.95;100.00;96743.16;1036191;28;20273;-51
2021/10/07 01:47:20;;;;;;;3.72;2.05;;;;;;;7.91;100.00;96736.41;1032060;28;20338;-49
2021/10/07 01:47:51;;;;;;;3.30;1.77;;;;;;;7.83;100.00;96743.72;1036305;28;20022;-53
2021/10/07 01:48:21;;;;;;;5.28;2.13;;;;;;;7.80;100.00;96744.72;1036160;28;20045;-50
2021/10/07 01:48:52;;;;;;;4.45;2.10;;;;;;;7.87;100.00;96738.31;1044269;28;20412;-50
2021/10/07 01:49:23;;;;;;;4.43;2.17;;;;;;;7.91;100.00;96744.22;1040350;28;20498;-52
2021/10/07 01:49:53;;;;;;;3.88;2.28;;;;;;;7.90;100.00;96742.53;1035955;28;20398;-50
2021/10/07 01:50:24;;;;;;;3.88;1.92;;;;;;;7.79;100.00;96743.88;1036185;28;20511;-50
2021/10/07 01:50:55;;;;;;;3.88;2.10;;;;;;;7.72;100.00;96744.25;1036047;28;20013;-51
2021/10/07 01:51:26;;;;;;;3.95;2.45;;;;;;;7.76;100.00;96741.41;1040483;28;20021;-50
2021/10/07 01:51:56;;;;;;;6.18;2.03;;;;;;;7.76;100.00;96736.19;1040270;28;20485;-50
2021/10/07 01:52:27;;;;;;;5.13;2.13;;;;;;;7.82;100.00;96745.50;1036133;28;20169;-51
2021/10/07 01:52:58;;;;;;;5.05;1.98;;;;;;;7.81;100.00;96746.44;1031900;28;20076;-50
2021/10/07 01:53:29;;;;;;;4.10;2.20;;;;;;;7.84;100.00;96748.03;1036082;28;20014;-49
2021/10/07 01:54:00;;;;;;;4.25;2.28;;;;;;;7.87;100.00;96748.75;1040228;28;20021;-50
2021/10/07 01:54:31;;;;;;;4.47;2.40;;;;;;;7.89;100.00;96739.06;1036210;28;20260;-51
2021/10/07 01:55:02;;;;;;;3.63;1.90;;;;;;;7.94;100.00;96744.09;1040139;28;20279;-50
2021/10/07 01:55:32;;;;;;;5.63;2.10;;;;;;;7.94;100.00;96742.31;1036404;28;20430;-51
2021/10/07 01:56:03;;;;;;;4.82;2.08;;;;;;;7.92;100.00;96730.25;1036491;28;20061;-53
2021/10/07 01:56:34;;;;;;;3.60;1.90;;;;;;;7.93;100.00;96738.00;1040171;28;20136;-49
2021/10/07 01:57:05;;;;;;;5.05;2.17;;;;;;;7.94;100.00;96734.50;1035986;28;20495;-49
2021/10/07 01:57:35;;;;;;;4.82;2.20;;;;;;;7.84;100.00;96737.59;1036215;28;20423;-50
2021/10/07 01:58:06;;;;;;;4.90;2.00;;;;;;;7.85;100.00;96740.16;1036329;28;20113;-50
2021/10/07 01:58:37;;;;;;;3.65;2.30;;;;;;;7.92;100.00;96738.94;1032451;28;20109;-50
2021/10/07 01:59:08;;;;;;;5.05;2.42;;;;;;;7.98;100.00;96738.66;1040201;28;20479;-50
2021/10/07 01:59:38;;;;;;;4.45;2.40;;;;;;;8.01;100.00;96737.66;1036202;28;20014;-47
2021/10/07 02:00:10;;;;;;;3.63;1.80;;;;;;;8.00;100.00;96743.78;1044427;28;20096;-49
2021/10/07 02:00:41;;;;;;;4.28;2.20;;;;;;;7.95;100.00;96735.34;1036213;28;20113;-50
2021/10/07 02:01:12;;;;;;;5.13;2.67;;;;;;;7.91;100.00;96742.47;1040375;28;20263;-50
2021/10/07 02:01:42;;;;;;;3.92;1.95;;;;;;;7.88;100.00;96747.84;1040515;28;20268;-50
2021/10/07 02:02:13;;;;;;;5.22;2.10;;;;;;;7.93;100.00;96739.78;1032272;28;20538;-50
2021/10/07 02:02:44;;;;;;;3.38;1.67;;;;;;;7.95;100.00;96744.00;1032043;28;20120;-54
2021/10/07 02:03:14;;;;;;;4.55;2.10;;;;;;;7.94;100.00;96737.09;1027910;28;20042;-50
2021/10/07 02:03:46;;;;;;;4.30;2.03;;;;;;;7.89;100.00;96740.84;1032517;28;20153;-50
2021/10/07 02:04:16;;;;;;;4.72;2.30;;;;;;;7.87;100.00;96745.28;1036707;28;20577;-49
2021/10/07 02:04:47;;;;;;;3.25;1.70;;;;;;;7.87;100.00;96740.06;1044776;28;20356;-48
2021/10/07 02:05:18;;;;;;;3.15;1.60;;;;;;;7.88;100.00;96744.38;1044361;28;20413;-51
2021/10/07 02:05:49;;;;;;;4.72;2.15;;;;;;;7.85;100.00;96744.53;1040651;28;20025;-50
2021/10/07 02:06:20;;;;;;;4.10;2.25;;;;;;;7.83;100.00;96743.72;1044293;28;20028;-51
2021/10/07 02:06:50;;;;;;;3.80;1.83;;;;;;;7.85;100.00;96747.13;1044228;28;20448;-50
2021/10/07 02:07:21;;;;;;;4.95;2.10;;;;;;;7.91;100.00;96742.47;1036064;28;20108;-50
2021/10/07 02:07:51;;;;;;;5.43;1.85;;;;;;;7.97;100.00;96741.31;1027994;28;20045;-52
2021/10/07 02:08:22;;;;;;;4.05;1.92;;;;;;;7.96;100.00;96747.47;1032040;28;20164;-49
2021/10/07 02:08:53;;;;;;;5.45;2.10;;;;;;;7.95;100.00;96749.22;1040199;28;20021;-50
2021/10/07 02:09:23;;;;;;;3.85;2.05;;;;;;;7.94;100.00;96747.53;1040193;28;20092;-50
2021/10/07 02:09:54;;;;;;;5.05;2.38;;;;;;;7.90;100.00;96742.53;1031880;28;20061;-50
2021/10/07 02:10:25;;;;;;;4.40;1.90;;;;;;;7.93;100.00;96753.66;1028215;28;20106;-50
2021/10/07 02:10:55;;;;;;;4.70;2.00;;;;;;;7.98;100.00;96746.47;1028194;28;20109;-50
2021/10/07 02:11:26;;;;;;;2.65;1.60;;;;;;;7.98;100.00;96740.41;1032301;28;20023;-51
2021/10/07 02:11:57;;;;;;;5.93;2.10;;;;;;;7.98;100.00;96743.03;1036304;28;20555;-50
2021/10/07 02:12:28;;;;;;;4.35;1.92;;;;;;;8.01;100.00;96749.84;1040276;28;20416;-50
2021/10/07 02:12:59;;;;;;;4.60;1.90;;;;;;;7.96;100.00;96744.88;1036187;28;20024;-49
2021/10/07 02:13:29;;;;;;;5.30;2.20;;;;;;;7.92;100.00;96744.16;1036405;28;20263;-50
2021/10/07 02:14:00;;;;;;;4.65;2.13;;;;;;;7.88;100.00;96741.75;1040197;28;20085;-51
2021/10/07 02:14:31;;;;;;;4.70;1.80;;;;;;;7.96;100.00;96750.91;1040705;28;20029;-47
2021/10/07 02:15:02;;;;;;;3.75;1.63;;;;;;;8.02;100.00;96747.19;1040376;28;20017;-50
2021/10/07 02:15:32;;;;;;;4.35;1.75;;;;;;;8.02;100.00;96741.13;1036445;28;20138;-51
2021/10/07 02:16:04;;;;;;;7.35;2.28;;;;;;;8.04;100.00;96742.72;1040152;28;20025;-50
2021/10/07 02:16:35;;;;;;;4.30;1.92;;;;;;;7.95;100.00;96741.38;1036334;28;20069;-50
2021/10/07 02:17:05;;;;;;;7.68;2.28;;;;;;;7.91;100.00;96737.25;1036304;28;20673;-50
2021/10/07 02:17:36;;;;;;;4.90;2.15;;;;;;;7.92;100.00;96738.94;1036084;28;20022;-52
2021/10/07 02:18:07;;;;;;;5.30;2.00;;;;;;;7.88;100.00;96740.00;1031978;28;20030;-50
2021/10/07 02:18:38;;;;;;;3.65;1.73;;;;;;;7.91;100.00;96736.41;1028000;28;20023;-50
2021/10/07 02:19:08;;;;;;;6.25;2.00;;;;;;;7.88;100.00;96736.53;1028051;28;20134;-50
2021/10/07 02:19:39;;;;;;;5.63;2.25;;;;;;;7.84;100.00;96738.44;1035951;28;20029;-48
2021/10/07 02:20:10;;;;;;;4.75;1.92;;;;;;;7.91;100.00;96737.25;1031954;28;20559;-50
2021/10/07 02:20:41;;;;;;;5.72;2.00;;;;;;;7.94;100.00;96737.09;1032270;28;20073;-50
2021/10/07 02:21:12;;;;;;;3.70;1.67;;;;;;;7.98;100.00;96737.81;1032275;28;20335;-50
2021/10/07 02:21:44;;;;;;;4.03;1.98;;;;;;;7.96;100.00;96737.03;1036220;28;20041;-51
2021/10/07 02:22:15;;;;;;;4.57;1.95;;;;;;;8.01;100.00;96732.41;1040186;28;20087;-50
2021/10/07 02:22:46;;;;;;;4.50;1.83;;;;;;;7.92;100.00;96735.47;1040981;28;20676;-54
2021/10/07 02:23:17;;;;;;;3.42;1.77;;;;;;;7.88;100.00;96733.91;1044655;28;20070;-52
2021/10/07 02:23:47;;;;;;;6.07;2.08;;;;;;;7.89;100.00;96738.25;1048346;28;20044;-50
2021/10/07 02:24:18;;;;;;;4.88;1.80;;;;;;;7.91;100.00;96739.00;1044281;28;20271;-50
2021/10/07 02:24:49;;;;;;;5.30;2.17;;;;;;;7.91;100.00;96737.25;1036327;28;20504;-51
2021/10/07 02:25:19;;;;;;;4.35;1.92;;;;;;;7.94;100.00;96739.72;1036102;28;20025;-50
2021/10/07 02:25:50;;;;;;;3.25;1.60;;;;;;;7.99;100.00;96734.25;1040216;28;20169;-50
2021/10/07 02:26:21;;;;;;;5.03;1.83;;;;;;;8.00;100.00;96737.75;1040081;28;20025;-52
2021/10/07 02:26:51;;;;;;;6.07;1.92;;;;;;;7.93;100.00;96742.38;1040089;28;20028;-50
2021/10/07 02:27:22;;;;;;;3.97;1.80;;;;;;;7.86;100.00;96739.22;1044126;28;20013;-50
2021/10/07 02:27:53;;;;;;;6.32;1.75;;;;;;;7.86;100.00;96739.22;1044193;28;20017;-51
2021/10/07 02:28:24;;;;;;;4.88;2.03;;;;;;;7.87;100.00;96735.69;1039922;28;20419;-50
2021/10/07 02:28:54;;;;;;;3.75;1.75;;;;;;;7.89;100.00;96739.06;1036040;28;20535;-50
2021/10/07 02:29:25;;;;;;;5.63;2.00;;;;;;;7.94;100.00;96729.28;1036050;28;20261;-50
2021/10/07 02:29:55;;;;;;;5.13;1.90;;;;;;;7.96;100.00;96732.66;1036165;28;20048;-50
2021/10/07 02:30:26;;;;;;;4.13;1.50;;;;;;;8.03;100.00;96733.19;1040206;28;20014;-50
2021/10/07 02:30:58;;;;;;;4.95;1.50;;;;;;;8.06;100.00;96733.06;1044472;28;20251;-50
2021/10/07 02:31:28;;;;;;;2.80;1.60;;;;;;;8.06;100.00;96734.84;1044604;28;20513;-48
2021/10/07 02:31:59;;;;;;;3.63;1.67;;;;;;;8.01;100.00;96728.97;1048425;28;20253;-50
2021/10/07 02:32:30;;;;;;;4.43;1.90;;;;;;;7.92;100.00;96731.13;1035914;28;20059;-50
2021/10/07 02:33:00;;;;;;;3.72;1.80;;;;;;;7.89;100.00;96731.25;1031841;28;20018;-50
2021/10/07 02:33:31;;;;;;;3.13;1.70;;;;;;;7.81;100.00;96736.00;1031941;28;20164;-50
2021/10/07 02:34:02;;;;;;;4.13;1.90;;;;;;;7.81;100.00;96730.78;1032001;28;20050;-50